Terminal Aerodrome Forecast
Issued by NWS Detroit/Pontiac, MI

Home | Current Version | Previous Version | Text Only | Print | Product List | Glossary On
Versions: 1 2 3 4 5 6 7 8 9 10 11 12 13 14 15 16 17
000
FTUS43 KDTX 231700
TAFFNT
TAF
KFNT 231720Z 2318/2418 07006KT P6SM BKN025
     FM232000 07006KT P6SM BKN035
     FM232200 08005KT P6SM SCT035
     FM241100 08004KT 2SM BR OVC003
     FM241400 08005KT 5SM HZ BKN005
     FM241600 10007KT P6SM SCT035=

USA.gov is the U.S. government's official web portal to all federal, state and local government web resources and services.